createdAt,value
2022-09-01T00:00:09.913Z,9.40
2022-09-01T00:01:09.947Z,7.30
2022-09-01T00:02:09.948Z,12.00
2022-09-01T00:03:10.151Z,11.50
2022-09-01T00:04:09.929Z,11.20
2022-09-01T00:05:09.848Z,9.10
2022-09-01T00:06:09.825Z,7.50
2022-09-01T00:07:09.848Z,18.70
2022-09-01T00:08:09.748Z,10.30
2022-09-01T00:09:09.847Z,9.60
2022-09-01T00:10:10.009Z,8.90
2022-09-01T00:11:09.810Z,6.10
2022-09-01T00:12:09.757Z,4.90
2022-09-01T00:13:09.752Z,5.90
2022-09-01T00:14:12.447Z,3.10
2022-09-01T00:15:10.689Z,5.20
2022-09-01T00:16:09.809Z,3.40
2022-09-01T00:17:09.858Z,3.90
2022-09-01T00:18:09.719Z,8.40
2022-09-01T00:19:09.705Z,4.40
2022-09-01T00:20:09.618Z,9.90
2022-09-01T00:21:09.928Z,8.40
2022-09-01T00:22:09.631Z,17.80
2022-09-01T00:23:09.589Z,10.20
2022-09-01T00:24:09.615Z,10.70
2022-09-01T00:25:09.553Z,18.40
2022-09-01T00:26:09.563Z,11.50
2022-09-01T00:27:09.594Z,17.90
2022-09-01T00:28:09.725Z,13.80
2022-09-01T00:29:09.826Z,18.80
2022-09-01T00:30:09.536Z,13.30
2022-09-01T00:31:09.542Z,9.00
2022-09-01T00:32:09.594Z,6.10
2022-09-01T00:33:09.577Z,3.90
2022-09-01T00:34:10.094Z,10.30
2022-09-01T00:35:09.475Z,6.50
2022-09-01T00:36:09.454Z,7.70
2022-09-01T00:37:09.491Z,6.20
2022-09-01T00:38:09.451Z,7.10
2022-09-01T00:39:09.474Z,5.80
2022-09-01T00:40:09.504Z,5.20
2022-09-01T00:41:09.396Z,7.50
2022-09-01T00:42:09.394Z,5.50
2022-09-01T00:43:09.368Z,5.40
2022-09-01T00:44:09.385Z,14.00
2022-09-01T00:45:09.378Z,19.30
2022-09-01T00:46:09.441Z,11.70
2022-09-01T00:47:09.356Z,10.60
2022-09-01T00:48:09.348Z,8.60
2022-09-01T00:49:09.344Z,4.30
2022-09-01T00:50:09.295Z,7.30
2022-09-01T00:51:09.298Z,9.00
2022-09-01T00:52:09.339Z,7.20
2022-09-01T00:53:09.290Z,8.20
2022-09-01T00:54:09.302Z,6.90
2022-09-01T00:55:16.783Z,5.20
2022-09-01T00:56:09.190Z,4.20
2022-09-01T00:57:09.141Z,4.40
2022-09-01T00:58:19.954Z,4.20
2022-09-01T00:59:10.118Z,4.20
2022-09-01T01:00:09.119Z,6.50
2022-09-01T01:01:09.189Z,10.20
2022-09-01T01:02:09.118Z,5.80
2022-09-01T01:03:09.091Z,7.20
2022-09-01T01:04:09.067Z,10.20
2022-09-01T01:05:09.046Z,3.80
2022-09-01T01:06:10.055Z,9.80
2022-09-01T01:07:09.538Z,11.30
2022-09-01T01:08:09.020Z,10.70
2022-09-01T01:09:09.053Z,9.70
2022-09-01T01:10:08.993Z,12.20
2022-09-01T01:11:08.984Z,9.90
2022-09-01T01:12:08.984Z,4.90
2022-09-01T01:13:08.965Z,5.30
2022-09-01T01:14:08.964Z,13.10
2022-09-01T01:15:08.939Z,9.70
2022-09-01T01:16:08.939Z,6.60
2022-09-01T01:17:08.956Z,13.40
2022-09-01T01:18:08.912Z,13.90
2022-09-01T01:19:08.918Z,12.90
2022-09-01T01:20:08.897Z,10.70
2022-09-01T01:21:08.867Z,14.10
2022-09-01T01:22:08.856Z,18.00
2022-09-01T01:23:08.843Z,8.20
2022-09-01T01:24:08.868Z,12.70
2022-09-01T01:25:08.820Z,6.60
2022-09-01T01:26:08.828Z,13.50
2022-09-01T01:27:08.814Z,11.90
2022-09-01T01:28:08.785Z,11.20
2022-09-01T01:29:08.776Z,11.30
2022-09-01T01:30:09.360Z,11.10
2022-09-01T01:31:08.799Z,8.40
2022-09-01T01:32:08.761Z,8.30
2022-09-01T01:33:08.725Z,8.20
2022-09-01T01:34:08.710Z,7.70
2022-09-01T01:35:08.703Z,10.50
2022-09-01T01:36:08.728Z,4.60
2022-09-01T01:37:08.679Z,6.00
2022-09-01T01:38:08.673Z,5.10
2022-09-01T01:39:08.660Z,3.20
2022-09-01T01:40:08.688Z,8.60
2022-09-01T01:41:08.638Z,5.60
2022-09-01T01:42:09.369Z,7.80
2022-09-01T01:43:08.637Z,5.90
2022-09-01T01:44:08.627Z,5.10
2022-09-01T01:45:08.593Z,4.50
2022-09-01T01:46:08.661Z,5.40
2022-09-01T01:47:08.583Z,4.10
2022-09-01T01:48:08.706Z,6.80
2022-09-01T01:49:08.546Z,6.10
2022-09-01T01:50:08.530Z,5.80
2022-09-01T01:51:08.526Z,4.50
2022-09-01T01:52:08.507Z,9.50
2022-09-01T01:53:11.322Z,12.50
2022-09-01T01:54:08.491Z,12.10
2022-09-01T01:55:08.497Z,15.80
2022-09-01T01:56:08.485Z,7.70
2022-09-01T01:57:08.460Z,11.80
2022-09-01T01:58:08.453Z,12.50
2022-09-01T01:59:08.424Z,12.70
2022-09-01T02:00:08.428Z,12.30
2022-09-01T02:01:08.426Z,14.00
2022-09-01T02:02:08.464Z,12.70
2022-09-01T02:03:08.429Z,8.80
2022-09-01T02:04:08.372Z,5.70
2022-09-01T02:05:08.359Z,6.50
2022-09-01T02:06:08.356Z,8.70
2022-09-01T02:07:08.351Z,7.60
2022-09-01T02:08:08.328Z,4.60
2022-09-01T02:09:08.318Z,3.40
2022-09-01T02:10:08.326Z,11.10
2022-09-01T02:11:08.320Z,11.80
2022-09-01T02:12:08.295Z,4.70
2022-09-01T02:13:08.269Z,4.00
2022-09-01T02:14:08.251Z,9.70
2022-09-01T02:15:08.244Z,5.40
2022-09-01T02:16:08.255Z,8.30
2022-09-01T02:17:08.305Z,7.60
2022-09-01T02:18:08.239Z,12.70
2022-09-01T02:19:08.205Z,7.20
2022-09-01T02:20:08.184Z,3.30
2022-09-01T02:21:08.262Z,11.10
2022-09-01T02:22:08.166Z,4.50
2022-09-01T02:23:08.351Z,5.30
2022-09-01T02:24:08.166Z,6.60
2022-09-01T02:25:08.133Z,13.30
2022-09-01T02:26:16.933Z,12.40
2022-09-01T02:27:09.143Z,7.90
2022-09-01T02:28:08.091Z,9.90
2022-09-01T02:29:08.098Z,9.10
2022-09-01T02:30:08.082Z,12.20
2022-09-01T02:31:08.154Z,7.60
2022-09-01T02:32:08.046Z,4.60
2022-09-01T02:33:08.036Z,5.10
2022-09-01T02:34:08.045Z,13.20
2022-09-01T02:35:08.036Z,13.90
2022-09-01T02:36:08.019Z,11.90
2022-09-01T02:37:07.988Z,4.10
2022-09-01T02:38:07.977Z,5.80
2022-09-01T02:39:08.529Z,4.80
2022-09-01T02:40:08.032Z,7.90
2022-09-01T02:41:07.944Z,7.10
2022-09-01T02:42:07.934Z,8.70
2022-09-01T02:43:07.917Z,12.80
2022-09-01T02:44:07.905Z,7.00
2022-09-01T02:45:07.931Z,10.00
2022-09-01T02:46:07.935Z,4.70
2022-09-01T02:47:07.873Z,7.40
2022-09-01T02:48:07.909Z,8.70
2022-09-01T02:49:07.916Z,7.00
2022-09-01T02:50:07.857Z,3.80
2022-09-01T02:51:07.826Z,4.10
2022-09-01T02:52:07.816Z,13.80
2022-09-01T02:53:07.805Z,2.90
2022-09-01T02:54:07.825Z,3.60
2022-09-01T02:55:07.778Z,13.30
2022-09-01T02:56:07.789Z,3.90
2022-09-01T02:57:07.769Z,3.20
2022-09-01T02:58:07.750Z,4.90
2022-09-01T02:59:07.743Z,8.10
2022-09-01T03:00:07.766Z,13.00
2022-09-01T03:01:07.722Z,5.60
2022-09-01T03:02:07.721Z,5.80
2022-09-01T03:03:07.710Z,4.30
2022-09-01T03:04:07.683Z,4.30
2022-09-01T03:05:07.765Z,9.40
2022-09-01T03:06:07.659Z,12.10
2022-09-01T03:07:07.671Z,6.80
2022-09-01T03:08:07.630Z,4.40
2022-09-01T03:09:07.687Z,8.20
2022-09-01T03:10:07.612Z,8.40
2022-09-01T03:11:10.946Z,8.80
2022-09-01T03:12:08.626Z,9.30
2022-09-01T03:13:07.601Z,15.20
2022-09-01T03:14:08.145Z,5.20
2022-09-01T03:15:09.007Z,14.20
2022-09-01T03:16:08.646Z,6.00
2022-09-01T03:17:08.528Z,8.80
2022-09-01T03:18:07.525Z,8.40
2022-09-01T03:19:07.505Z,11.80
2022-09-01T03:20:07.491Z,7.40
2022-09-01T03:21:07.496Z,7.60
2022-09-01T03:22:07.568Z,5.60
2022-09-01T03:23:07.478Z,6.20
2022-09-01T03:24:07.456Z,12.10
2022-09-01T03:25:07.449Z,9.40
2022-09-01T03:26:07.421Z,8.80
2022-09-01T03:27:07.434Z,7.90
2022-09-01T03:28:07.411Z,7.80
2022-09-01T03:29:07.400Z,4.90
2022-09-01T03:30:07.406Z,7.30
2022-09-01T03:31:07.369Z,6.30
2022-09-01T03:32:07.446Z,8.60
2022-09-01T03:33:07.372Z,9.50
2022-09-01T03:34:07.329Z,9.90
2022-09-01T03:35:07.320Z,8.20
2022-09-01T03:36:14.785Z,8.10
2022-09-01T03:37:08.319Z,10.30
2022-09-01T03:38:07.292Z,7.30
2022-09-01T03:39:07.301Z,8.00
2022-09-01T03:40:07.294Z,7.80
2022-09-01T03:41:07.253Z,5.90
2022-09-01T03:42:07.294Z,4.70
2022-09-01T03:43:07.230Z,3.90
2022-09-01T03:44:07.217Z,3.60
2022-09-01T03:45:07.210Z,3.30
2022-09-01T03:46:07.248Z,5.10
2022-09-01T03:47:07.233Z,6.00
2022-09-01T03:48:07.186Z,4.20
2022-09-01T03:49:07.158Z,4.60
2022-09-01T03:50:07.170Z,7.90
2022-09-01T03:51:07.136Z,10.20
2022-09-01T03:52:07.126Z,11.00
2022-09-01T03:53:07.112Z,5.90
2022-09-01T03:54:07.149Z,4.70
2022-09-01T03:55:07.100Z,3.70
2022-09-01T03:56:07.082Z,6.80
2022-09-01T03:57:07.089Z,8.80
2022-09-01T03:58:10.121Z,5.90
2022-09-01T03:59:07.584Z,6.30
2022-09-01T04:00:07.045Z,15.10
2022-09-01T04:01:08.275Z,9.50
2022-09-01T04:02:08.473Z,8.20
2022-09-01T04:03:07.030Z,11.20
2022-09-01T04:04:06.996Z,8.70
2022-09-01T04:05:08.544Z,8.20
2022-09-01T04:06:07.026Z,14.70
2022-09-01T04:07:06.948Z,10.60
2022-09-01T04:08:06.940Z,9.80
2022-09-01T04:09:06.951Z,12.00
2022-09-01T04:10:06.929Z,13.70
2022-09-01T04:11:06.910Z,13.60
2022-09-01T04:12:06.994Z,15.90
2022-09-01T04:13:06.882Z,17.20
2022-09-01T04:14:06.905Z,9.40
2022-09-01T04:15:06.859Z,9.80
2022-09-01T04:16:06.886Z,13.10
2022-09-01T04:17:06.836Z,2.90
2022-09-01T04:18:06.863Z,6.00
2022-09-01T04:19:06.831Z,12.00
2022-09-01T04:20:06.926Z,9.00
2022-09-01T04:21:06.796Z,21.50
2022-09-01T04:22:06.784Z,16.10
2022-09-01T04:23:06.773Z,8.20
2022-09-01T04:24:06.818Z,13.50
2022-09-01T04:25:06.746Z,18.00
2022-09-01T04:26:06.738Z,12.90
2022-09-01T04:27:06.743Z,11.40
2022-09-01T04:28:06.712Z,12.20
2022-09-01T04:29:06.723Z,12.60
2022-09-01T04:30:06.690Z,9.70
2022-09-01T04:31:06.691Z,9.40
2022-09-01T04:32:06.713Z,16.10
2022-09-01T04:33:06.655Z,6.70
2022-09-01T04:34:06.668Z,20.80
2022-09-01T04:35:06.630Z,27.00
2022-09-01T04:36:06.619Z,19.80
2022-09-01T04:37:06.646Z,27.50
2022-09-01T04:38:06.597Z,20.10
2022-09-01T04:39:06.596Z,17.20
2022-09-01T04:40:06.643Z,11.30
2022-09-01T04:41:06.567Z,6.80
2022-09-01T04:42:06.567Z,12.30
2022-09-01T04:43:06.664Z,14.50
2022-09-01T04:44:06.531Z,16.60
2022-09-01T04:45:10.534Z,13.10
2022-09-01T04:46:06.567Z,10.40
2022-09-01T04:47:06.509Z,17.00
2022-09-01T04:48:06.498Z,11.30
2022-09-01T04:49:06.479Z,34.80
2022-09-01T04:50:06.465Z,23.60
2022-09-01T04:51:06.450Z,23.60
2022-09-01T04:52:06.436Z,24.00
2022-09-01T04:53:06.467Z,25.40
2022-09-01T04:54:06.414Z,18.20
2022-09-01T04:55:06.412Z,33.10
2022-09-01T04:56:06.388Z,13.60
2022-09-01T04:57:06.377Z,7.50
2022-09-01T04:58:10.107Z,21.50
2022-09-01T04:59:07.355Z,17.70
2022-09-01T05:00:06.341Z,13.30
2022-09-01T05:01:06.433Z,9.30
2022-09-01T05:02:06.427Z,11.50
2022-09-01T05:03:06.326Z,11.70
2022-09-01T05:04:06.321Z,14.60
2022-09-01T05:05:06.284Z,4.70
2022-09-01T05:06:06.277Z,13.80
2022-09-01T05:07:06.280Z,14.30
2022-09-01T05:08:06.253Z,11.60
2022-09-01T05:09:06.266Z,25.80
2022-09-01T05:10:06.230Z,14.70
2022-09-01T05:11:06.220Z,8.20
2022-09-01T05:12:06.206Z,9.50
2022-09-01T05:13:06.210Z,17.40
2022-09-01T05:14:06.218Z,15.00
2022-09-01T05:15:06.200Z,16.80
2022-09-01T05:16:06.227Z,6.60
2022-09-01T05:17:06.147Z,34.80
2022-09-01T05:18:06.155Z,28.40
2022-09-01T05:19:06.151Z,19.70
2022-09-01T05:20:06.115Z,20.10
2022-09-01T05:21:06.101Z,11.80
2022-09-01T05:22:06.096Z,10.50
2022-09-01T05:23:06.077Z,12.30
2022-09-01T05:24:06.134Z,19.10
2022-09-01T05:25:06.053Z,18.10
2022-09-01T05:26:06.048Z,23.60
2022-09-01T05:27:06.046Z,15.60
2022-09-01T05:28:06.040Z,24.40
2022-09-01T05:29:06.027Z,31.70
2022-09-01T05:30:06.025Z,22.10
2022-09-01T05:31:06.054Z,25.80
2022-09-01T05:32:06.000Z,23.00
2022-09-01T05:33:05.970Z,21.70
2022-09-01T05:34:05.970Z,23.80
2022-09-01T05:35:05.947Z,21.30
2022-09-01T05:36:05.961Z,31.90
2022-09-01T05:37:05.928Z,12.00
2022-09-01T05:38:05.909Z,11.60
2022-09-01T05:39:05.912Z,17.70
2022-09-01T05:40:05.964Z,26.30
2022-09-01T05:41:05.880Z,18.70
2022-09-01T05:42:05.872Z,13.50
2022-09-01T05:43:05.847Z,11.30
2022-09-01T05:44:05.854Z,23.80
2022-09-01T05:45:05.823Z,25.90
2022-09-01T05:46:07.258Z,17.60
2022-09-01T05:47:05.826Z,29.60
2022-09-01T05:48:05.792Z,34.90
2022-09-01T05:49:05.811Z,28.50
2022-09-01T05:50:05.767Z,27.60
2022-09-01T05:51:05.772Z,25.30
2022-09-01T05:52:05.762Z,24.50
2022-09-01T05:53:05.732Z,28.10
2022-09-01T05:54:06.754Z,25.00
2022-09-01T05:55:05.709Z,23.40
2022-09-01T05:56:05.701Z,13.40
2022-09-01T05:57:30.451Z,9.00
2022-09-01T05:58:07.065Z,25.60
2022-09-01T06:00:06.666Z,26.90
2022-09-01T06:01:06.301Z,39.30
2022-09-01T06:02:05.812Z,40.90
2022-09-01T06:03:05.687Z,34.20
2022-09-01T06:04:05.617Z,32.30
2022-09-01T06:05:05.597Z,35.00
2022-09-01T06:06:05.593Z,26.90
2022-09-01T06:07:07.950Z,28.00
2022-09-01T06:08:05.560Z,31.90
2022-09-01T06:09:05.553Z,23.30
2022-09-01T06:10:05.559Z,20.10
2022-09-01T06:11:05.525Z,35.10
2022-09-01T06:12:05.541Z,32.60
2022-09-01T06:13:05.498Z,19.40
2022-09-01T06:14:05.492Z,18.40
2022-09-01T06:15:05.498Z,25.50
2022-09-01T06:16:05.517Z,23.10
2022-09-01T06:17:05.483Z,28.40
2022-09-01T06:18:05.512Z,20.80
2022-09-01T06:19:05.435Z,25.20
2022-09-01T06:20:05.430Z,33.70
2022-09-01T06:21:05.409Z,32.50
2022-09-01T06:22:05.414Z,18.90
2022-09-01T06:23:05.413Z,20.20
2022-09-01T06:24:05.388Z,13.30
2022-09-01T06:25:05.384Z,14.30
2022-09-01T06:26:05.362Z,16.60
2022-09-01T06:27:05.338Z,19.20
2022-09-01T06:28:05.328Z,16.70
2022-09-01T06:29:05.317Z,6.80
2022-09-01T06:30:05.371Z,12.20
2022-09-01T06:31:05.363Z,17.00
2022-09-01T06:32:05.286Z,18.30
2022-09-01T06:33:05.292Z,23.00
2022-09-01T06:34:05.262Z,15.50
2022-09-01T06:35:05.330Z,11.30
2022-09-01T06:36:05.246Z,14.50
2022-09-01T06:37:05.232Z,8.70
2022-09-01T06:38:05.247Z,4.90
2022-09-01T06:39:05.200Z,15.30
2022-09-01T06:40:05.251Z,4.50
2022-09-01T06:41:05.176Z,3.50
2022-09-01T06:42:06.324Z,4.40
2022-09-01T06:43:05.176Z,3.70
2022-09-01T06:44:05.173Z,4.50
2022-09-01T06:45:05.163Z,3.30
2022-09-01T06:46:05.135Z,4.10
2022-09-01T06:47:05.213Z,4.60
2022-09-01T06:48:05.138Z,5.30
2022-09-01T06:49:05.087Z,7.80
2022-09-01T06:50:05.076Z,14.50
2022-09-01T06:51:21.466Z,8.60
2022-09-01T06:53:57.345Z,14.90
2022-09-01T06:55:07.691Z,14.80
2022-09-01T06:55:56.415Z,154.90
2022-09-01T06:56:56.272Z,60.60
2022-09-01T06:58:05.643Z,22.40
2022-09-01T06:58:57.231Z,38.10
2022-09-01T06:59:56.119Z,29.20
2022-09-01T07:00:56.122Z,15.40
2022-09-01T07:02:01.469Z,11.80
2022-09-01T07:02:57.205Z,14.30
2022-09-01T07:03:56.089Z,4.70
2022-09-01T07:04:56.105Z,8.60
2022-09-01T07:06:01.253Z,7.50
2022-09-01T07:07:01.631Z,9.40
2022-09-01T07:08:12.397Z,3.00
2022-09-01T07:10:17.679Z,4.00
2022-09-01T07:13:12.422Z,10.80
2022-09-01T07:18:06.946Z,12.40
2022-09-01T07:19:05.953Z,15.20
2022-09-01T07:21:36.708Z,10.10
2022-09-01T07:22:07.269Z,8.60
2022-09-01T07:23:06.627Z,10.80
2022-09-01T07:24:07.820Z,10.20
2022-09-01T07:25:11.545Z,12.70
2022-09-01T07:26:06.777Z,12.90
2022-09-01T07:27:09.283Z,10.50
2022-09-01T07:28:05.883Z,8.70
2022-09-01T07:29:06.366Z,13.40
2022-09-01T07:30:13.424Z,5.90
2022-09-01T07:35:06.825Z,3.00
2022-09-01T07:43:06.759Z,2.50
2022-09-01T07:44:05.556Z,3.00
2022-09-01T07:45:35.218Z,1.80
2022-09-01T07:47:52.405Z,4.20
2022-09-01T07:48:06.710Z,2.50
2022-09-01T07:50:24.839Z,3.20
2022-09-01T07:51:35.724Z,4.00
2022-09-01T07:52:06.509Z,2.50
2022-09-01T07:53:05.457Z,3.70
2022-09-01T07:54:05.450Z,4.20
2022-09-01T07:55:05.437Z,3.80
2022-09-01T07:56:05.423Z,5.20
2022-09-01T07:57:05.394Z,2.30
2022-09-01T07:58:05.377Z,4.90
2022-09-01T07:59:05.371Z,5.60
2022-09-01T08:00:05.360Z,2.50
2022-09-01T08:01:05.425Z,3.40
2022-09-01T08:02:05.412Z,3.80
2022-09-01T08:03:05.339Z,2.90
2022-09-01T08:04:05.315Z,4.40
2022-09-01T08:05:05.326Z,3.60
2022-09-01T08:06:05.295Z,5.60
2022-09-01T08:07:05.299Z,3.10
2022-09-01T08:08:18.536Z,3.40
2022-09-01T08:09:06.259Z,3.90
2022-09-01T08:10:05.269Z,3.70
2022-09-01T08:11:05.469Z,4.40
2022-09-01T08:12:05.247Z,2.60
2022-09-01T08:13:05.228Z,5.70
2022-09-01T08:14:05.201Z,2.30
2022-09-01T08:16:07.471Z,5.40
2022-09-01T08:18:06.240Z,2.00
2022-09-01T08:19:16.081Z,1.40
2022-09-01T08:20:06.154Z,2.50
2022-09-01T08:21:05.127Z,2.10
2022-09-01T08:22:05.115Z,2.00
2022-09-01T08:23:05.102Z,2.10
2022-09-01T08:24:05.092Z,3.80
2022-09-01T08:25:05.145Z,2.40
2022-09-01T08:26:05.070Z,5.10
2022-09-01T08:27:05.059Z,2.80
2022-09-01T08:28:05.048Z,2.90
2022-09-01T08:29:05.055Z,3.50
2022-09-01T08:30:05.181Z,3.20
2022-09-01T08:31:10.968Z,14.40
2022-09-01T08:32:08.931Z,4.30
2022-09-01T08:33:12.191Z,7.80
2022-09-01T08:34:05.981Z,10.30
2022-09-01T08:35:04.980Z,5.00
2022-09-01T08:36:04.975Z,8.50
2022-09-01T08:37:04.946Z,5.90
2022-09-01T08:38:04.965Z,7.80
2022-09-01T08:39:05.609Z,6.90
2022-09-01T08:40:04.989Z,10.50
2022-09-01T08:41:05.046Z,3.30
2022-09-01T08:42:04.894Z,3.60
2022-09-01T08:43:04.880Z,4.80
2022-09-01T08:44:04.871Z,3.00
2022-09-01T08:45:04.880Z,3.20
2022-09-01T08:46:04.882Z,5.20
2022-09-01T08:47:04.858Z,4.00
2022-09-01T08:48:37.151Z,4.00
2022-09-01T08:50:06.237Z,3.50
2022-09-01T08:51:11.591Z,1.70
2022-09-01T08:52:05.797Z,6.70
2022-09-01T08:53:12.019Z,7.50
2022-09-01T08:54:05.781Z,3.70
2022-09-01T08:55:04.752Z,3.40
2022-09-01T08:56:04.746Z,4.40
2022-09-01T08:57:04.782Z,5.20
2022-09-01T08:58:04.729Z,7.10
2022-09-01T08:59:04.724Z,2.60
2022-09-01T09:00:04.932Z,6.00
2022-09-01T09:01:04.689Z,4.50
2022-09-01T09:02:04.966Z,5.00
2022-09-01T09:03:04.766Z,4.40
2022-09-01T09:04:04.650Z,6.50
2022-09-01T09:05:15.559Z,4.00
2022-09-01T09:06:05.638Z,5.20
2022-09-01T09:07:04.635Z,3.10
2022-09-01T09:08:07.951Z,3.30
2022-09-01T09:09:04.607Z,5.80
2022-09-01T09:10:04.587Z,6.70
2022-09-01T09:11:04.712Z,5.10
2022-09-01T09:12:04.604Z,6.40
2022-09-01T09:13:04.554Z,4.30
2022-09-01T09:14:04.567Z,4.70
2022-09-01T09:15:04.550Z,6.20
2022-09-01T09:16:08.372Z,4.60
2022-09-01T09:17:04.529Z,3.30
2022-09-01T09:18:04.494Z,2.40
2022-09-01T09:19:04.539Z,1.70
2022-09-01T09:20:04.494Z,3.50
2022-09-01T09:21:04.483Z,1.80
2022-09-01T09:22:04.475Z,3.10
2022-09-01T09:23:04.438Z,4.30
2022-09-01T09:24:04.825Z,3.50
2022-09-01T09:25:04.433Z,3.90
2022-09-01T09:26:04.525Z,3.50
2022-09-01T09:27:04.438Z,3.00
2022-09-01T09:28:04.380Z,2.80
2022-09-01T09:29:04.372Z,3.40
2022-09-01T09:30:09.233Z,3.40
2022-09-01T09:31:05.397Z,2.70
2022-09-01T09:32:04.337Z,3.90
2022-09-01T09:34:05.315Z,3.40
2022-09-01T09:35:04.328Z,1.60
2022-09-01T09:36:04.324Z,5.40
2022-09-01T09:37:04.638Z,4.90
2022-09-01T09:38:04.280Z,4.20
2022-09-01T09:39:04.280Z,6.50
2022-09-01T09:40:04.309Z,3.60
2022-09-01T09:41:25.760Z,3.40
2022-09-01T09:42:06.331Z,2.80
2022-09-01T09:43:04.218Z,7.40
2022-09-01T09:44:04.207Z,8.30
2022-09-01T09:45:04.196Z,4.30
2022-09-01T09:46:04.508Z,7.90
2022-09-01T09:47:13.391Z,3.40
2022-09-01T09:48:05.158Z,2.90
2022-09-01T09:49:04.208Z,4.30
2022-09-01T09:50:05.283Z,8.10
2022-09-01T09:51:04.557Z,4.00
2022-09-01T09:52:04.197Z,4.10
2022-09-01T09:53:04.130Z,6.50
2022-09-01T09:54:04.224Z,10.70
2022-09-01T09:55:04.942Z,20.50
2022-09-01T09:56:04.124Z,18.30
2022-09-01T09:57:04.838Z,10.50
2022-09-01T09:58:04.064Z,5.20
2022-09-01T09:59:04.067Z,8.40
2022-09-01T10:00:04.087Z,2.20
2022-09-01T10:01:05.161Z,3.90
2022-09-01T10:02:04.034Z,3.30
2022-09-01T10:03:04.697Z,5.60
2022-09-01T10:04:05.076Z,4.60
2022-09-01T10:05:03.999Z,5.40
2022-09-01T10:06:03.984Z,3.50
2022-09-01T10:07:03.953Z,2.70
2022-09-01T10:08:03.945Z,2.80
2022-09-01T10:09:04.044Z,3.80
2022-09-01T10:10:04.182Z,9.40
2022-09-01T10:11:03.908Z,18.70
2022-09-01T10:12:03.944Z,3.80
2022-09-01T10:13:03.954Z,4.80
2022-09-01T10:14:03.941Z,3.20
2022-09-01T10:15:04.684Z,2.50
2022-09-01T10:16:05.681Z,5.60
2022-09-01T10:17:06.372Z,5.00
2022-09-01T10:19:07.091Z,4.20
2022-09-01T10:20:04.906Z,5.90
2022-09-01T10:21:04.345Z,11.00
2022-09-01T10:22:03.857Z,6.80
2022-09-01T10:23:03.895Z,7.60
2022-09-01T10:24:21.225Z,5.00
2022-09-01T10:25:04.816Z,3.80
2022-09-01T10:26:09.075Z,4.40
2022-09-01T10:27:08.325Z,9.40
2022-09-01T10:28:04.741Z,9.60
2022-09-01T10:29:04.007Z,5.80
2022-09-01T10:30:20.063Z,11.00
2022-09-01T10:31:05.235Z,2.20
2022-09-01T10:32:30.616Z,2.50
2022-09-01T10:33:15.588Z,3.20
2022-09-01T10:34:05.638Z,6.70
2022-09-01T10:35:03.954Z,5.10
2022-09-01T10:36:06.992Z,6.00
2022-09-01T10:37:03.687Z,5.30
2022-09-01T10:38:03.657Z,7.00
2022-09-01T10:39:06.189Z,5.30
2022-09-01T10:40:04.726Z,11.40
2022-09-01T10:41:03.703Z,6.50
2022-09-01T10:42:03.683Z,6.10
2022-09-01T10:43:05.622Z,8.70
2022-09-01T10:44:03.653Z,6.80
2022-09-01T10:45:03.573Z,7.10
2022-09-01T10:46:06.037Z,4.90
2022-09-01T10:47:06.201Z,4.60
2022-09-01T10:48:03.579Z,7.10
2022-09-01T10:49:04.421Z,3.30
2022-09-01T10:50:07.605Z,8.30
2022-09-01T10:51:04.604Z,5.70
2022-09-01T10:52:08.574Z,5.70
2022-09-01T10:53:04.954Z,5.10
2022-09-01T10:54:03.547Z,5.30
2022-09-01T10:55:03.453Z,8.20
2022-09-01T10:56:04.916Z,4.70
2022-09-01T10:57:09.022Z,4.50
2022-09-01T10:58:09.511Z,13.90
2022-09-01T11:00:04.680Z,2.20
2022-09-01T11:01:11.082Z,1.70
2022-09-01T11:03:29.811Z,2.20
2022-09-01T11:04:04.492Z,1.00
2022-09-01T11:05:03.402Z,1.50
2022-09-01T11:06:13.873Z,1.60
2022-09-01T11:07:11.924Z,1.90
2022-09-01T11:08:15.163Z,1.30
2022-09-01T11:09:04.284Z,1.00
2022-09-01T11:10:11.258Z,2.30
2022-09-01T11:11:04.277Z,2.40
2022-09-01T11:12:03.346Z,0.80
2022-09-01T11:13:03.356Z,1.30
2022-09-01T11:14:03.262Z,0.80
2022-09-01T11:15:03.236Z,2.70
2022-09-01T11:16:03.295Z,1.50
2022-09-01T11:17:03.371Z,1.00
2022-09-01T11:18:03.279Z,1.90
2022-09-01T11:19:03.241Z,3.70
2022-09-01T11:20:03.209Z,1.00
2022-09-01T11:21:03.175Z,1.60
2022-09-01T11:22:03.193Z,2.30
2022-09-01T11:23:03.523Z,1.90
2022-09-01T11:24:03.419Z,1.60
2022-09-01T11:25:11.836Z,4.50
2022-09-01T11:26:19.935Z,2.50
2022-09-01T11:27:04.089Z,4.00
2022-09-01T11:28:03.055Z,1.20
2022-09-01T11:29:03.057Z,2.30
2022-09-01T11:30:03.062Z,2.10
2022-09-01T11:31:03.024Z,0.90
2022-09-01T11:32:03.057Z,1.90
2022-09-01T11:33:03.013Z,3.20
2022-09-01T11:34:03.008Z,1.60
2022-09-01T11:35:02.977Z,1.20
2022-09-01T11:36:02.971Z,3.00
2022-09-01T11:37:02.971Z,1.60
2022-09-01T11:38:03.124Z,1.20
2022-09-01T11:39:03.024Z,1.80
2022-09-01T11:40:02.979Z,4.80
2022-09-01T11:41:02.917Z,5.90
2022-09-01T11:42:04.406Z,3.60
2022-09-01T11:43:02.888Z,1.50
2022-09-01T11:44:02.931Z,1.60
2022-09-01T11:45:02.924Z,1.80
2022-09-01T11:46:02.998Z,2.20
2022-09-01T11:47:02.888Z,1.20
2022-09-01T11:48:03.122Z,3.70
2022-09-01T11:49:02.940Z,3.40
2022-09-01T11:50:02.878Z,6.10
2022-09-01T11:51:02.864Z,5.70
2022-09-01T11:52:02.904Z,2.00
2022-09-01T11:53:05.415Z,1.30
2022-09-01T11:54:02.853Z,2.10
2022-09-01T11:55:02.864Z,1.80
2022-09-01T11:56:02.810Z,2.90
2022-09-01T11:57:02.820Z,5.00
2022-09-01T11:58:02.803Z,3.00
2022-09-01T11:59:02.848Z,2.90
2022-09-01T12:00:02.817Z,4.30
2022-09-01T12:01:02.783Z,2.30
2022-09-01T12:02:02.905Z,1.60
2022-09-01T12:03:02.952Z,4.70
2022-09-01T12:04:02.751Z,1.40
2022-09-01T12:05:02.701Z,2.80
2022-09-01T12:06:02.671Z,4.70
2022-09-01T12:07:02.703Z,7.50
2022-09-01T12:08:02.659Z,2.20
2022-09-01T12:09:02.640Z,3.80
2022-09-01T12:10:02.632Z,4.90
2022-09-01T12:11:02.600Z,1.20
2022-09-01T12:12:02.634Z,2.10
2022-09-01T12:13:02.633Z,2.10
2022-09-01T12:14:03.399Z,4.50
2022-09-01T12:15:06.042Z,3.50
2022-09-01T12:16:19.211Z,2.30
2022-09-01T12:17:03.616Z,4.00
2022-09-01T12:18:02.563Z,2.40
2022-09-01T12:19:02.643Z,2.90
2022-09-01T12:20:02.509Z,3.80
2022-09-01T12:21:02.485Z,2.40
2022-09-01T12:22:02.493Z,1.40
2022-09-01T12:23:02.513Z,1.50
2022-09-01T12:24:02.453Z,4.90
2022-09-01T12:25:02.533Z,1.10
2022-09-01T12:26:02.498Z,1.80
2022-09-01T12:27:02.517Z,2.80
2022-09-01T12:28:02.584Z,1.20
2022-09-01T12:29:02.468Z,2.20
2022-09-01T12:30:02.538Z,3.30
2022-09-01T12:31:02.483Z,2.50
2022-09-01T12:32:03.492Z,1.60
2022-09-01T12:34:03.458Z,2.90
2022-09-01T12:35:09.246Z,1.00
2022-09-01T12:36:03.333Z,3.30
2022-09-01T12:37:02.315Z,2.80
2022-09-01T12:38:03.074Z,2.20
2022-09-01T12:39:02.347Z,2.50
2022-09-01T12:40:02.315Z,4.10
2022-09-01T12:41:02.453Z,2.30
2022-09-01T12:42:02.326Z,3.20
2022-09-01T12:43:02.308Z,1.20
2022-09-01T12:44:02.326Z,2.10
2022-09-01T12:45:02.271Z,1.70
2022-09-01T12:46:02.892Z,2.10
2022-09-01T12:47:02.245Z,1.70
2022-09-01T12:48:02.203Z,3.90
2022-09-01T12:49:02.326Z,2.80
2022-09-01T12:50:03.455Z,3.20
2022-09-01T12:51:02.211Z,1.50
2022-09-01T12:52:02.191Z,2.30
2022-09-01T12:53:02.189Z,1.50
2022-09-01T12:54:04.812Z,2.50
2022-09-01T12:55:11.324Z,6.00
2022-09-01T12:56:02.110Z,7.00
2022-09-01T12:57:02.098Z,1.90
2022-09-01T12:58:02.088Z,2.80
2022-09-01T12:59:02.104Z,4.20
2022-09-01T13:00:02.072Z,5.40
2022-09-01T13:01:02.218Z,11.50
2022-09-01T13:02:02.166Z,1.30
2022-09-01T13:03:02.022Z,2.80
2022-09-01T13:04:02.075Z,3.40
2022-09-01T13:05:02.038Z,1.50
2022-09-01T13:06:01.996Z,2.50
2022-09-01T13:07:01.964Z,3.20
2022-09-01T13:08:01.992Z,2.90
2022-09-01T13:09:01.941Z,3.30
2022-09-01T13:10:01.927Z,2.00
2022-09-01T13:11:01.935Z,2.30
2022-09-01T13:12:06.667Z,3.60
2022-09-01T13:13:02.926Z,3.00
2022-09-01T13:14:01.889Z,1.80
2022-09-01T13:15:01.948Z,3.10
2022-09-01T13:16:01.912Z,6.70
2022-09-01T13:17:01.853Z,1.10
2022-09-01T13:18:01.839Z,2.00
2022-09-01T13:19:26.545Z,3.50
2022-09-01T13:20:02.886Z,2.50
2022-09-01T13:21:01.827Z,1.50
2022-09-01T13:22:01.848Z,3.30
2022-09-01T13:23:01.787Z,1.80
2022-09-01T13:24:01.797Z,4.00
2022-09-01T13:25:01.767Z,2.00
2022-09-01T13:26:01.758Z,1.40
2022-09-01T13:28:02.730Z,2.60
2022-09-01T13:29:01.745Z,1.90
2022-09-01T13:30:01.729Z,1.60
2022-09-01T13:31:32.151Z,4.10
2022-09-01T13:32:18.735Z,4.40
2022-09-01T13:33:28.406Z,1.60
2022-09-01T13:34:10.871Z,4.30
2022-09-01T13:35:02.700Z,2.20
2022-09-01T13:36:01.749Z,2.20
2022-09-01T13:37:01.636Z,2.50
2022-09-01T13:38:01.644Z,3.50
2022-09-01T13:39:01.606Z,1.60
2022-09-01T13:40:01.863Z,2.50
2022-09-01T13:41:01.588Z,2.80
2022-09-01T13:42:01.574Z,3.00
2022-09-01T13:43:01.584Z,4.60